Jacksonville, Georgia
Current Conditions -  °F | °C
As of 2:35 AM on Saturday 29 Nov 2014 (Local Time) from KFZG Reporting Station
Haze Haze  
Wind Chill:   Ceiling: Unl
Heat Index:   Visibility: 3mi
Dew Point:   Wind: 0mph
Humidity: 94%   Direction: NA
Pressure: 30.32"   Gusts: NA
Location:  31.81°N, 82.98°W
Report Text: KFZG 290735Z AUTO 00000KT 3SM BR CLR 01/00 A3032 RMK AO2 T00071002
Loading
Personal Weather Stations






























Interactive Weather Map New forecast layout! Learn more

10-Day Weather Forecast

Advertisements
Track Severe Weather on mobile